Time;durP1;ratioP1;P1;durP2;ratioP2;P2;SDS_P1;SDS_P2;PMS_P1;PMS_P2;Temp;Humidity;BMP_temperature;BMP_pressure;BME280_temperature;BME280_humidity;BME280_pressure;Samples;Min_cycle;Max_cycle;Signal;HPM_P1;HPM_P2
2021/11/01 00:01:10;;;;;;;1.20;1.20;;;9.70;99.90;;;;;;4127599;28;20704;-76
2021/11/01 00:03:11;;;;;;;1.20;1.20;;;9.70;99.90;;;;;;4131567;28;20031;-76
2021/11/01 00:05:12;;;;;;;1.10;1.10;;;9.60;99.90;;;;;;4131233;28;20046;-75
2021/11/01 00:07:14;;;;;;;1.65;1.65;;;9.60;99.90;;;;;;4125410;28;20041;-76
2021/11/01 00:09:14;;;;;;;4.75;4.05;;;9.50;99.90;;;;;;4130903;28;20034;-76
2021/11/01 00:11:15;;;;;;;2.67;2.33;;;9.60;99.90;;;;;;4131675;28;20030;-76
2021/11/01 00:13:16;;;;;;;1.20;1.20;;;9.60;99.90;;;;;;4131753;28;20052;-76
2021/11/01 00:15:17;;;;;;;1.42;1.33;;;9.60;99.90;;;;;;4132359;28;20039;-76
2021/11/01 00:17:17;;;;;;;2.00;1.90;;;9.50;99.90;;;;;;4130401;28;20045;-77
2021/11/01 00:19:18;;;;;;;1.77;1.70;;;9.50;99.90;;;;;;4128498;28;20116;-76
2021/11/01 00:21:21;;;;;;;3.30;3.10;;;9.50;99.90;;;;;;4128045;28;20039;-76
2021/11/01 00:23:21;;;;;;;3.00;2.80;;;9.50;99.90;;;;;;4117568;28;20093;-76
2021/11/01 00:25:22;;;;;;;1.42;1.42;;;9.50;99.90;;;;;;4127201;28;20034;-76
2021/11/01 00:27:23;;;;;;;17.73;2.08;;;9.60;99.90;;;;;;4126056;28;20061;-76
2021/11/01 00:29:23;;;;;;;2.78;1.65;;;9.50;99.90;;;;;;4130723;28;20598;-74
2021/11/01 00:31:24;;;;;;;1.50;1.48;;;9.50;99.90;;;;;;4132611;28;20948;-74
2021/11/01 00:33:26;;;;;;;2.92;2.80;;;9.50;99.90;;;;;;4124731;28;20756;-76
2021/11/01 00:35:26;;;;;;;2.10;2.00;;;9.40;99.90;;;;;;4121160;28;20109;-75
2021/11/01 00:37:28;;;;;;;4.60;2.88;;;9.50;99.90;;;;;;4130670;28;20038;-75
2021/11/01 00:39:28;;;;;;;2.83;2.65;;;9.50;99.90;;;;;;4129023;28;20518;-75
2021/11/01 00:41:29;;;;;;;1.17;1.17;;;9.50;99.90;;;;;;4128782;28;20042;-75
2021/11/01 00:43:30;;;;;;;2.53;2.13;;;9.40;99.90;;;;;;4130015;28;20060;-75
2021/11/01 00:45:32;;;;;;;1.15;1.15;;;9.40;99.90;;;;;;4129397;28;20045;-75
2021/11/01 00:47:32;;;;;;;1.35;1.33;;;9.40;99.90;;;;;;4130938;28;20042;-76
2021/11/01 00:49:33;;;;;;;1.20;1.20;;;9.30;99.90;;;;;;4119645;28;20510;-76
2021/11/01 00:51:37;;;;;;;1.20;1.20;;;9.30;99.90;;;;;;4124985;28;20058;-76
2021/11/01 00:53:47;;;;;;;2.63;2.47;;;9.30;99.90;;;;;;4130887;28;20029;-76
2021/11/01 00:55:49;;;;;;;3.22;3.05;;;9.40;99.90;;;;;;4131406;28;20038;-77
2021/11/01 00:57:52;;;;;;;1.45;1.42;;;9.40;99.90;;;;;;4116001;28;20034;-76
2021/11/01 00:59:53;;;;;;;1.10;1.10;;;9.40;99.90;;;;;;4126801;28;20046;-76
2021/11/01 01:01:54;;;;;;;2.83;2.63;;;9.30;99.90;;;;;;4131659;28;20031;-77
2021/11/01 01:03:55;;;;;;;1.23;1.23;;;9.30;99.90;;;;;;4129415;28;20054;-77
2021/11/01 01:05:58;;;;;;;2.22;2.13;;;9.20;99.90;;;;;;4123488;28;20035;-76
2021/11/01 01:07:59;;;;;;;1.23;1.23;;;9.30;99.90;;;;;;4130755;28;20030;-76
2021/11/01 01:10:00;;;;;;;1.17;1.17;;;9.30;99.90;;;;;;4130080;28;20097;-76
2021/11/01 01:12:01;;;;;;;1.17;1.17;;;9.20;99.90;;;;;;4126108;28;20033;-76
2021/11/01 01:14:02;;;;;;;1.38;1.38;;;9.10;99.90;;;;;;4118450;28;20030;-76
2021/11/01 01:16:12;;;;;;;2.13;2.03;;;9.10;99.90;;;;;;4130383;28;20027;-76
2021/11/01 01:18:17;;;;;;;1.35;1.35;;;9.10;99.90;;;;;;4130915;28;20105;-76
2021/11/01 01:20:20;;;;;;;6.63;2.10;;;9.10;99.90;;;;;;4128495;28;20054;-76
2021/11/01 01:22:30;;;;;;;1.20;1.20;;;9.10;99.90;;;;;;4130336;28;20066;-76
2021/11/01 01:24:31;;;;;;;1.30;1.30;;;9.00;99.90;;;;;;4129091;28;20034;-76
2021/11/01 01:26:32;;;;;;;1.60;1.50;;;9.00;99.90;;;;;;4130986;28;20034;-75
2021/11/01 01:28:33;;;;;;;2.00;1.90;;;9.00;99.90;;;;;;4118963;28;20041;-76
2021/11/01 01:30:35;;;;;;;1.50;1.50;;;9.00;99.90;;;;;;4123410;28;20413;-74
2021/11/01 01:32:35;;;;;;;1.40;1.40;;;9.00;99.90;;;;;;4129466;28;20114;-76
2021/11/01 01:34:36;;;;;;;3.20;2.33;;;9.00;99.90;;;;;;4129619;28;20458;-75
2021/11/01 01:36:37;;;;;;;1.05;1.05;;;9.00;99.90;;;;;;4129551;28;20026;-76
2021/11/01 01:38:38;;;;;;;1.20;1.20;;;9.00;99.90;;;;;;4122204;28;20038;-76
2021/11/01 01:40:40;;;;;;;1.67;1.67;;;9.10;99.90;;;;;;4127019;28;20441;-76
2021/11/01 01:42:41;;;;;;;1.75;1.70;;;9.10;99.90;;;;;;4125702;28;20239;-76
2021/11/01 01:44:42;;;;;;;3.33;2.95;;;9.10;99.90;;;;;;4129753;28;20487;-76
2021/11/01 01:46:42;;;;;;;1.30;1.30;;;9.10;99.90;;;;;;4127259;28;20054;-76
2021/11/01 01:48:43;;;;;;;1.30;1.30;;;9.10;99.90;;;;;;4111944;28;20228;-75
2021/11/01 01:50:44;;;;;;;1.10;1.10;;;9.00;99.90;;;;;;4126529;28;20121;-76
2021/11/01 01:52:48;;;;;;;1.30;1.30;;;8.90;99.90;;;;;;4128996;28;21067;-76
2021/11/01 01:54:50;;;;;;;1.30;1.30;;;8.90;99.90;;;;;;4123806;28;20101;-76
2021/11/01 01:56:50;;;;;;;1.98;1.88;;;8.90;99.90;;;;;;4142586;28;20112;-76
2021/11/01 01:58:56;;;;;;;1.13;1.13;;;8.90;99.90;;;;;;4125198;28;20038;-76
2021/11/01 02:03:03;;;;;;;1.00;1.00;;;8.90;99.90;;;;;;4125191;28;20030;-75
2021/11/01 02:05:05;;;;;;;2.85;2.65;;;9.00;99.90;;;;;;4125499;28;20030;-76
2021/11/01 02:07:25;;;;;;;1.10;1.10;;;9.10;99.90;;;;;;4129105;28;20034;-76
2021/11/01 02:09:35;;;;;;;1.90;1.80;;;9.10;99.90;;;;;;4128417;28;20113;-75
2021/11/01 02:11:59;;;;;;;2.08;2.00;;;9.00;99.90;;;;;;4128622;28;20065;-77
2021/11/01 02:14:05;;;;;;;1.95;1.90;;;8.90;99.90;;;;;;4141275;28;20562;-75
2021/11/01 02:16:06;;;;;;;1.23;1.23;;;8.90;99.90;;;;;;4117121;28;20399;-75
2021/11/01 02:18:09;;;;;;;1.10;1.10;;;8.90;99.90;;;;;;4129678;28;20034;-75
2021/11/01 02:20:14;;;;;;;1.33;1.33;;;8.80;99.90;;;;;;4130861;28;20030;-76
2021/11/01 02:22:40;;;;;;;1.85;1.75;;;8.90;99.90;;;;;;4127176;28;20062;-77
2021/11/01 02:24:40;;;;;;;3.85;3.65;;;8.90;99.90;;;;;;4123967;28;20037;-76
2021/11/01 02:26:41;;;;;;;2.90;2.72;;;8.90;99.90;;;;;;4125153;28;20034;-77
2021/11/01 02:28:44;;;;;;;1.45;1.45;;;8.80;99.90;;;;;;4128080;28;20038;-76
2021/11/01 02:30:46;;;;;;;1.77;1.73;;;8.80;99.90;;;;;;4116450;28;20035;-77
2021/11/01 02:32:49;;;;;;;1.48;1.45;;;8.70;99.90;;;;;;4126108;28;20106;-76
2021/11/01 02:34:50;;;;;;;1.50;1.45;;;8.70;99.90;;;;;;4114442;28;20030;-76
2021/11/01 02:36:51;;;;;;;1.20;1.20;;;8.70;99.90;;;;;;4142064;28;20092;-76
2021/11/01 02:38:55;;;;;;;1.80;1.70;;;8.70;99.90;;;;;;4130395;28;20054;-76
2021/11/01 02:40:56;;;;;;;1.30;1.30;;;8.70;99.90;;;;;;4126251;28;20039;-76
2021/11/01 02:42:57;;;;;;;2.22;2.13;;;8.70;99.90;;;;;;4114706;28;20035;-76
2021/11/01 02:44:59;;;;;;;1.13;1.13;;;8.70;99.90;;;;;;4130167;28;20072;-76
2021/11/01 02:47:00;;;;;;;1.20;1.20;;;8.70;99.90;;;;;;4128261;28;20466;-77
2021/11/01 02:49:01;;;;;;;1.38;1.38;;;8.80;99.90;;;;;;4125019;28;20034;-77
2021/11/01 02:51:01;;;;;;;1.25;1.25;;;8.80;99.90;;;;;;4116339;28;20035;-77
2021/11/01 02:53:03;;;;;;;3.17;2.95;;;8.80;99.90;;;;;;4129280;28;20038;-77
2021/11/01 02:55:06;;;;;;;1.10;1.10;;;8.70;99.90;;;;;;4129329;28;20129;-76
2021/11/01 02:57:07;;;;;;;1.52;1.52;;;8.70;99.90;;;;;;4126963;28;20030;-76
2021/11/01 02:59:08;;;;;;;1.30;1.30;;;8.70;99.90;;;;;;4132658;28;20062;-77
2021/11/01 03:01:11;;;;;;;1.80;1.70;;;8.70;99.90;;;;;;4128179;28;20043;-76
2021/11/01 03:03:12;;;;;;;1.20;1.20;;;8.70;99.90;;;;;;4129233;28;20122;-74
2021/11/01 03:05:16;;;;;;;5.35;2.97;;;8.70;99.90;;;;;;4123976;28;20054;-76
2021/11/01 03:07:17;;;;;;;1.40;1.40;;;8.70;99.90;;;;;;4125626;28;20030;-76
2021/11/01 03:09:19;;;;;;;1.40;1.40;;;8.70;99.90;;;;;;4131631;28;20042;-76
2021/11/01 03:11:22;;;;;;;2.25;2.15;;;8.70;99.90;;;;;;4133382;28;20050;-76
2021/11/01 03:13:25;;;;;;;2.78;2.38;;;8.80;99.90;;;;;;4131742;28;20170;-76
2021/11/01 03:15:28;;;;;;;4.15;3.10;;;8.80;99.90;;;;;;4133429;28;20105;-75
2021/11/01 03:17:34;;;;;;;2.05;1.85;;;8.80;99.90;;;;;;4132131;28;20041;-76
2021/11/01 03:19:39;;;;;;;1.98;1.88;;;8.80;99.90;;;;;;4133079;28;20494;-76
2021/11/01 03:21:42;;;;;;;1.20;1.20;;;8.70;99.90;;;;;;4123426;28;20035;-76
2021/11/01 03:23:47;;;;;;;2.45;1.38;;;8.70;99.90;;;;;;4130886;28;20158;-76
2021/11/01 03:26:06;;;;;;;18.70;1.85;;;8.80;99.90;;;;;;4131809;28;20114;-76
2021/11/01 03:28:09;;;;;;;2.05;1.95;;;8.90;99.90;;;;;;4131406;28;20065;-76
2021/11/01 03:30:10;;;;;;;1.38;1.38;;;8.90;99.90;;;;;;4132135;28;20038;-73
2021/11/01 03:32:13;;;;;;;1.50;1.30;;;9.00;99.90;;;;;;4132049;28;20105;-74
2021/11/01 03:34:16;;;;;;;1.20;1.20;;;9.00;99.90;;;;;;4132162;28;20537;-75
2021/11/01 03:36:17;;;;;;;1.10;1.10;;;8.90;99.90;;;;;;4127304;28;20321;-75
2021/11/01 03:38:20;;;;;;;1.55;1.55;;;8.90;99.90;;;;;;4131487;28;20038;-75
2021/11/01 03:40:22;;;;;;;3.75;3.22;;;8.90;99.90;;;;;;4121308;28;20506;-76
2021/11/01 03:42:24;;;;;;;1.30;1.30;;;8.80;99.90;;;;;;4127390;28;20027;-76
2021/11/01 03:44:28;;;;;;;1.20;1.20;;;8.80;99.90;;;;;;4132142;28;20363;-76
2021/11/01 03:46:42;;;;;;;2.00;1.90;;;8.90;99.90;;;;;;4132557;28;20430;-76
2021/11/01 03:48:43;;;;;;;2.97;2.78;;;8.90;99.90;;;;;;4147203;28;20548;-76
2021/11/01 03:50:56;;;;;;;1.50;1.50;;;8.80;99.90;;;;;;4130247;28;20129;-75
2021/11/01 03:52:57;;;;;;;1.20;1.20;;;8.70;99.90;;;;;;4115230;28;20070;-75
2021/11/01 03:54:58;;;;;;;1.17;1.17;;;8.80;99.90;;;;;;4127858;28;20031;-76
2021/11/01 03:57:00;;;;;;;1.23;1.23;;;8.70;99.90;;;;;;4127886;28;20401;-76
2021/11/01 03:59:01;;;;;;;2.88;2.38;;;8.70;99.90;;;;;;4129681;28;20462;-76
2021/11/01 04:01:02;;;;;;;1.23;1.23;;;8.60;99.90;;;;;;4128021;28;20045;-76
2021/11/01 04:03:04;;;;;;;1.65;1.63;;;8.60;99.90;;;;;;4130016;28;20413;-76
2021/11/01 04:05:06;;;;;;;3.15;2.95;;;8.60;99.90;;;;;;4131153;28;20180;-75
2021/11/01 04:07:07;;;;;;;2.15;2.05;;;8.60;99.90;;;;;;4122242;28;20046;-76
2021/11/01 04:09:10;;;;;;;1.20;1.20;;;8.70;99.90;;;;;;4120628;28;20034;-75
2021/11/01 04:11:12;;;;;;;1.30;1.30;;;8.70;99.90;;;;;;4122176;28;20037;-76
2021/11/01 04:13:12;;;;;;;1.50;1.50;;;8.80;99.90;;;;;;4123826;28;20451;-75
2021/11/01 04:15:20;;;;;;;2.60;2.42;;;8.80;99.90;;;;;;4130853;28;20109;-76
2021/11/01 04:17:45;;;;;;;2.10;2.00;;;8.80;99.90;;;;;;4129879;28;20441;-75
2021/11/01 04:19:47;;;;;;;1.42;1.42;;;8.80;99.90;;;;;;4130891;28;20038;-75
2021/11/01 04:21:48;;;;;;;1.25;1.25;;;8.80;99.90;;;;;;4127833;28;20134;-75
2021/11/01 04:23:49;;;;;;;1.85;1.77;;;8.90;99.90;;;;;;4114942;28;20027;-74
2021/11/01 04:25:50;;;;;;;3.88;3.67;;;8.90;99.90;;;;;;4129932;28;20039;-75
2021/11/01 04:27:51;;;;;;;1.20;1.20;;;8.90;99.90;;;;;;4128869;28;20030;-75
2021/11/01 04:29:52;;;;;;;1.40;1.40;;;9.00;99.90;;;;;;4130103;28;20042;-75
2021/11/01 04:31:59;;;;;;;1.70;1.67;;;9.00;99.90;;;;;;4127046;28;20063;-74
2021/11/01 04:34:02;;;;;;;1.30;1.30;;;9.00;99.90;;;;;;4129494;28;20089;-75
2021/11/01 04:36:03;;;;;;;1.17;1.17;;;9.00;99.90;;;;;;4128355;28;20113;-75
2021/11/01 04:40:41;;;;;;;1.20;1.20;;;9.10;99.90;;;;;;4137591;28;20038;-76
2021/11/01 04:54:27;;;;;;;1.20;1.20;;;8.80;99.90;;;;;;4132262;28;20041;-75
2021/11/01 04:56:28;;;;;;;2.10;2.00;;;8.80;99.90;;;;;;4132383;28;20034;-76
2021/11/01 04:58:29;;;;;;;1.20;1.20;;;8.70;99.90;;;;;;4124091;28;20038;-76
2021/11/01 05:00:30;;;;;;;1.20;1.20;;;8.70;99.90;;;;;;4127087;28;20042;-76
2021/11/01 05:02:31;;;;;;;2.03;1.92;;;8.70;99.90;;;;;;4130827;28;20026;-75
2021/11/01 05:04:35;;;;;;;1.20;1.20;;;8.80;99.90;;;;;;4130472;28;20034;-75
2021/11/01 05:06:41;;;;;;;1.90;1.80;;;8.80;99.90;;;;;;4131693;28;20030;-74
2021/11/01 05:08:49;;;;;;;1.33;1.33;;;8.80;99.90;;;;;;4128762;28;20032;-76
2021/11/01 05:10:54;;;;;;;2.15;2.05;;;8.70;99.90;;;;;;4128341;28;20098;-77
2021/11/01 05:12:56;;;;;;;2.13;2.03;;;8.70;99.90;;;;;;4125904;28;20031;-75
2021/11/01 05:17:47;;;;;;;1.30;1.30;;;8.70;99.90;;;;;;4118601;28;20030;-76
2021/11/01 05:20:24;;;;;;;1.40;1.40;;;8.70;99.90;;;;;;4130095;28;20038;-77
2021/11/01 05:22:30;;;;;;;3.05;2.85;;;8.60;99.90;;;;;;4129300;28;20030;-77
2021/11/01 05:29:16;;;;;;;1.40;1.40;;;8.70;99.90;;;;;;4122616;28;20030;-77
2021/11/01 05:31:23;;;;;;;1.60;1.60;;;8.70;99.90;;;;;;4129549;28;20026;-77
2021/11/01 05:33:51;;;;;;;1.88;1.60;;;8.70;99.90;;;;;;4127491;28;20098;-76
2021/11/01 05:35:51;;;;;;;10.50;3.85;;;8.60;99.90;;;;;;4129365;28;20038;-76
2021/11/01 05:37:52;;;;;;;19.60;4.85;;;8.70;99.90;;;;;;4130282;28;20034;-74
2021/11/01 05:39:53;;;;;;;15.07;4.15;;;8.60;99.90;;;;;;4129255;28;20034;-75
2021/11/01 05:41:54;;;;;;;19.80;4.22;;;8.60;99.90;;;;;;4122531;28;20549;-77
2021/11/01 05:43:54;;;;;;;13.52;3.85;;;8.60;99.90;;;;;;4122392;28;20088;-77
2021/11/01 05:45:56;;;;;;;14.13;4.43;;;8.70;99.90;;;;;;4127897;28;20117;-74
2021/11/01 05:48:02;;;;;;;12.63;3.65;;;8.70;99.90;;;;;;4127946;28;20062;-75
2021/11/01 05:50:04;;;;;;;19.42;4.25;;;8.60;99.90;;;;;;4128190;28;20382;-74
2021/11/01 05:52:14;;;;;;;24.60;5.80;;;8.60;99.90;;;;;;4127485;28;20402;-74
2021/11/01 05:54:19;;;;;;;20.92;4.65;;;8.70;99.90;;;;;;4127628;28;20492;-74
2021/11/01 05:56:29;;;;;;;16.00;3.70;;;8.70;99.90;;;;;;4124754;28;20023;-75
2021/11/01 05:58:36;;;;;;;15.80;3.60;;;8.70;99.90;;;;;;4126717;28;20039;-75
2021/11/01 06:10:00;;;;;;;15.80;4.15;;;9.00;99.90;;;;;;4121781;28;20026;-76
2021/11/01 06:14:19;;;;;;;16.08;4.38;;;9.10;99.90;;;;;;4128326;28;20114;-75
2021/11/01 06:16:21;;;;;;;7.38;4.50;;;9.10;99.90;;;;;;4130435;28;20034;-75
2021/11/01 06:18:26;;;;;;;15.27;4.43;;;9.10;99.90;;;;;;4127831;28;20046;-76
2021/11/01 06:20:27;;;;;;;9.63;3.63;;;9.20;99.90;;;;;;4141498;28;20038;-76
2021/11/01 06:22:28;;;;;;;10.48;4.07;;;9.20;99.90;;;;;;4126682;28;20035;-76
2021/11/01 06:26:47;;;;;;;23.08;4.65;;;9.40;99.90;;;;;;4131269;28;20033;-76
2021/11/01 06:28:53;;;;;;;18.48;4.57;;;9.40;99.90;;;;;;4128762;28;20038;-76
2021/11/01 06:30:58;;;;;;;14.98;3.20;;;9.30;99.90;;;;;;4125668;28;20093;-77
2021/11/01 06:33:39;;;;;;;13.50;3.35;;;9.30;99.90;;;;;;4129379;28;20108;-76
2021/11/01 06:42:29;;;;;;;13.93;5.40;;;9.50;99.90;;;;;;4126309;28;20049;-77
2021/11/01 06:44:43;;;;;;;7.38;3.85;;;9.40;99.90;;;;;;4130738;28;20438;-76
2021/11/01 06:55:56;;;;;;;;;;;9.10;99.90;;;;;;4127301;28;20114;-76
2021/11/01 06:58:28;;;;;;;13.15;3.40;;;9.10;99.90;;;;;;4126844;28;19917;-77
2021/11/01 07:16:46;;;;;;;12.07;3.88;;;9.20;99.90;;;;;;4116723;28;20031;-76
2021/11/01 07:19:00;;;;;;;19.90;5.95;;;9.10;99.90;;;;;;4126519;28;20601;-76
2021/11/01 07:21:25;;;;;;;9.55;3.75;;;9.20;99.90;;;;;;4126267;28;20125;-75
2021/11/01 07:26:08;;;;;;;17.58;5.30;;;9.30;99.90;;;;;;4128701;28;20022;-76
2021/11/01 08:22:06;;;;;;;17.27;4.75;;;10.40;99.90;;;;;;4130089;28;20097;-82
2021/11/01 08:28:58;;;;;;;12.82;4.50;;;10.70;99.90;;;;;;4132040;28;20046;-82
2021/11/01 08:49:26;;;;;;;9.00;3.70;;;10.90;99.90;;;;;;4130315;28;20036;-79
2021/11/01 09:19:48;;;;;;;9.68;3.13;;;11.40;99.90;;;;;;4131625;28;20050;-80
2021/11/01 09:24:31;;;;;;;9.48;3.28;;;11.50;99.90;;;;;;4130065;28;20105;-80
2021/11/01 09:26:35;;;;;;;8.18;3.03;;;11.60;99.90;;;;;;4126364;28;20525;-80
2021/11/01 09:35:49;;;;;;;11.90;3.45;;;11.60;99.90;;;;;;4129691;28;19918;-80
2021/11/01 09:42:28;;;;;;;12.63;3.55;;;12.10;99.90;;;;;;4106179;28;20046;-81
2021/11/01 09:44:32;;;;;;;8.52;3.10;;;12.30;99.90;;;;;;4128760;28;20038;-80
2021/11/01 09:46:33;;;;;;;8.57;3.63;;;12.40;99.90;;;;;;4121987;28;20041;-80
2021/11/01 09:48:33;;;;;;;10.02;3.50;;;12.60;99.90;;;;;;4128495;28;20463;-80
2021/11/01 09:50:35;;;;;;;6.38;3.53;;;12.70;99.90;;;;;;4126821;28;20030;-81
2021/11/01 09:52:36;;;;;;;7.05;3.55;;;12.70;99.90;;;;;;4138384;28;20046;-81
2021/11/01 09:54:38;;;;;;;12.52;3.22;;;12.80;99.90;;;;;;4124840;28;20443;-82
2021/11/01 09:56:46;;;;;;;9.68;4.30;;;12.80;99.90;;;;;;4129309;28;20513;-80
2021/11/01 10:01:12;;;;;;;7.40;3.78;;;12.60;99.90;;;;;;4129231;28;20119;-80
2021/11/01 10:03:14;;;;;;;8.85;3.47;;;12.70;99.90;;;;;;4123487;28;20090;-81
2021/11/01 10:05:25;;;;;;;10.48;3.22;;;12.80;99.90;;;;;;4113507;28;20039;-80
2021/11/01 10:07:34;;;;;;;9.50;3.97;;;13.00;99.90;;;;;;4129252;28;20118;-80
2021/11/01 10:09:39;;;;;;;9.95;2.95;;;13.20;99.90;;;;;;4126043;28;20448;-80
2021/11/01 10:11:44;;;;;;;7.30;2.80;;;12.90;99.90;;;;;;4129140;28;20102;-80
2021/11/01 10:13:56;;;;;;;12.77;3.83;;;13.00;99.90;;;;;;4128622;28;20096;-80
2021/11/01 10:18:29;;;;;;;10.73;4.10;;;13.20;99.90;;;;;;4096723;28;20039;-80
2021/11/01 10:20:32;;;;;;;9.80;2.97;;;13.30;99.90;;;;;;4123890;28;20629;-81
2021/11/01 10:22:38;;;;;;;10.35;5.28;;;13.70;99.90;;;;;;4128183;28;20706;-80
2021/11/01 10:24:41;;;;;;;10.20;3.97;;;13.90;99.90;;;;;;4128835;28;20030;-80
2021/11/01 10:26:45;;;;;;;9.02;3.38;;;14.10;99.90;;;;;;4126721;28;20034;-81
2021/11/01 10:28:53;;;;;;;14.02;4.35;;;14.30;99.90;;;;;;4127792;28;20092;-79
2021/11/01 10:31:24;;;;;;;14.65;3.40;;;14.30;99.90;;;;;;4129906;28;20077;-80
2021/11/01 10:33:31;;;;;;;7.47;2.75;;;13.90;99.90;;;;;;4130060;28;20113;-80
2021/11/01 10:35:34;;;;;;;7.15;3.33;;;13.30;99.90;;;;;;4128278;28;20117;-80
2021/11/01 10:37:36;;;;;;;6.25;3.25;;;13.00;99.90;;;;;;4130135;28;20049;-80
2021/11/01 10:39:37;;;;;;;10.70;3.42;;;12.60;99.90;;;;;;4130311;28;20042;-81
2021/11/01 10:42:14;;;;;;;10.20;3.35;;;12.80;99.90;;;;;;4127574;28;20415;-80
2021/11/01 10:56:53;;;;;;;9.88;3.13;;;13.70;99.90;;;;;;4127563;28;20045;-78
2021/11/01 11:10:47;;;;;;;9.38;3.95;;;14.20;99.90;;;;;;4129057;28;20100;-79
2021/11/01 11:13:08;;;;;;;4.65;3.00;;;14.20;99.90;;;;;;4127999;28;20041;-78
2021/11/01 11:15:11;;;;;;;4.60;2.63;;;14.00;99.90;;;;;;4130024;28;20120;-79
2021/11/01 11:17:23;;;;;;;7.40;3.13;;;14.30;99.90;;;;;;4127271;28;20030;-80
2021/11/01 11:19:45;;;;;;;9.70;4.57;;;14.50;99.90;;;;;;4130654;28;20018;-79
2021/11/01 11:24:29;;;;;;;5.20;3.00;;;15.20;99.90;;;;;;4133478;28;20050;-80
2021/11/01 11:26:39;;;;;;;5.63;2.95;;;15.00;99.90;;;;;;4132709;28;20034;-80
2021/11/01 11:29:13;;;;;;;10.13;3.22;;;15.20;99.90;;;;;;4131593;28;20390;-80
2021/11/01 11:31:40;;;;;;;9.23;4.60;;;15.20;99.90;;;;;;4130416;28;20394;-79
2021/11/01 11:37:20;;;;;;;6.28;2.40;;;15.40;99.90;;;;;;4129703;28;20390;-79
2021/11/01 11:38:43;;;;;;;7.00;2.15;;;15.60;99.90;;;;;;4125204;28;19921;-78
2021/11/01 11:47:50;;;;;;;5.97;2.63;;;15.90;99.90;;;;;;4130619;28;20053;-79
2021/11/01 11:49:52;;;;;;;7.40;2.47;;;15.80;99.90;;;;;;4130487;28;20069;-79
2021/11/01 11:52:05;;;;;;;6.32;2.92;;;15.60;99.90;;;;;;4130831;28;20045;-80
2021/11/01 11:54:08;;;;;;;5.90;2.47;;;15.00;99.90;;;;;;4130024;28;20035;-79
2021/11/01 11:56:11;;;;;;;12.00;3.35;;;14.80;99.90;;;;;;4130266;28;20278;-80
2021/11/01 11:58:14;;;;;;;8.70;2.47;;;15.00;99.90;;;;;;4131118;28;20023;-79
2021/11/01 12:00:18;;;;;;;7.07;2.72;;;15.10;99.90;;;;;;4131484;28;20109;-80
2021/11/01 12:02:39;;;;;;;9.27;3.13;;;15.30;99.90;;;;;;4117472;28;20130;-80
2021/11/01 12:04:47;;;;;;;3.47;2.40;;;15.50;99.90;;;;;;4127509;28;20086;-79
2021/11/01 12:06:57;;;;;;;6.60;3.53;;;16.10;99.90;;;;;;4130333;28;20517;-79
2021/11/01 12:09:09;;;;;;;7.18;3.35;;;15.90;99.90;;;;;;4125795;28;20433;-80
2021/11/01 12:17:35;;;;;;;7.67;3.17;;;14.80;99.90;;;;;;4116135;28;20027;-80
2021/11/01 12:19:36;;;;;;;8.07;2.60;;;14.70;99.90;;;;;;4124798;28;20034;-79
2021/11/01 12:21:40;;;;;;;8.05;2.85;;;14.40;99.90;;;;;;4128999;28;20037;-80
2021/11/01 12:23:43;;;;;;;9.80;3.13;;;14.10;99.90;;;;;;4127683;28;20130;-80
2021/11/01 12:25:45;;;;;;;9.10;2.65;;;13.90;99.90;;;;;;4117714;28;20073;-81
2021/11/01 12:28:00;;;;;;;6.50;2.95;;;13.90;99.90;;;;;;4130338;28;20041;-79
2021/11/01 12:30:04;;;;;;;13.75;3.63;;;14.80;99.90;;;;;;4127625;28;20085;-80
2021/11/01 12:32:09;;;;;;;6.70;2.35;;;15.40;99.90;;;;;;4120528;28;20038;-81
2021/11/01 12:34:19;;;;;;;7.82;3.50;;;16.00;99.90;;;;;;4137903;28;20030;-80
2021/11/01 12:36:29;;;;;;;7.05;3.03;;;16.40;99.90;;;;;;4129876;28;20125;-79
2021/11/01 12:39:23;;;;;;;8.55;2.70;;;16.80;99.90;;;;;;4129569;28;20528;-81
2021/11/01 12:41:16;;;;;;;3.90;2.25;;;16.60;99.90;;;;;;4131986;28;20498;-81
2021/11/01 12:57:57;;;;;;;5.55;2.67;;;16.50;99.90;;;;;;4113323;28;20046;-80
2021/11/01 13:00:00;;;;;;;6.13;2.50;;;16.80;99.90;;;;;;4121442;28;20398;-80
2021/11/01 13:02:01;;;;;;;4.85;3.00;;;16.80;99.90;;;;;;4113972;28;20793;-78
2021/11/01 13:06:20;;;;;;;5.63;2.30;;;16.60;99.90;;;;;;4129143;28;20038;-79
2021/11/01 13:08:28;;;;;;;5.40;2.38;;;16.30;99.90;;;;;;4114562;28;20499;-78
2021/11/01 13:19:25;;;;;;;9.65;3.70;;;16.70;99.90;;;;;;4129055;28;20409;-78
2021/11/01 13:21:33;;;;;;;6.72;2.90;;;16.40;99.90;;;;;;4127596;28;20897;-80
2021/11/01 13:23:36;;;;;;;7.20;2.88;;;16.00;99.90;;;;;;4130473;28;20117;-78
2021/11/01 13:35:36;;;;;;;7.78;3.17;;;15.70;99.90;;;;;;4114508;28;20045;-79
2021/11/01 13:37:36;;;;;;;8.45;3.65;;;16.50;99.90;;;;;;4130501;28;20449;-79
2021/11/01 13:39:37;;;;;;;12.85;3.95;;;15.80;99.90;;;;;;4131404;28;20030;-78
2021/11/01 13:41:48;;;;;;;8.77;3.10;;;15.40;99.90;;;;;;4128361;28;20070;-79
2021/11/01 13:43:50;;;;;;;11.95;3.33;;;15.50;99.90;;;;;;4129565;28;20470;-78
2021/11/01 13:45:52;;;;;;;9.37;2.93;;;15.80;99.90;;;;;;4121584;28;20449;-78
2021/11/01 13:47:59;;;;;;;6.30;3.07;;;15.90;99.90;;;;;;4123617;28;20042;-79
2021/11/01 13:49:59;;;;;;;7.22;2.95;;;15.80;99.90;;;;;;4126169;28;20030;-80
2021/11/01 13:54:49;;;;;;;7.60;3.22;;;14.90;99.90;;;;;;4113988;28;20030;-78
2021/11/01 13:56:54;;;;;;;9.40;3.28;;;14.80;99.90;;;;;;4126934;28;20460;-79
2021/11/01 13:59:03;;;;;;;5.97;2.80;;;14.60;99.90;;;;;;4122005;28;20043;-81
2021/11/01 14:03:35;;;;;;;7.97;2.83;;;14.50;99.90;;;;;;4124497;28;20089;-80
2021/11/01 14:12:48;;;;;;;9.48;3.13;;;14.30;99.90;;;;;;4127627;28;20438;-80
2021/11/01 14:15:20;;;;;;;8.65;2.65;;;14.30;99.90;;;;;;4128219;28;20045;-80
2021/11/01 14:19:43;;;;;;;31.38;19.17;;;13.90;99.90;;;;;;4122941;28;20038;-79
2021/11/01 14:35:36;;;;;;;6.38;3.10;;;12.90;99.90;;;;;;4127854;28;20057;-80
2021/11/01 15:06:13;;;;;;;7.38;3.72;;;13.20;99.90;;;;;;4129991;28;20029;-75
2021/11/01 15:12:18;;;;;;;6.63;3.15;;;12.80;99.90;;;;;;4130898;28;20030;-76
2021/11/01 15:23:38;;;;;;;9.15;3.55;;;12.60;99.90;;;;;;4130243;28;20413;-76
2021/11/01 15:25:58;;;;;;;6.75;3.60;;;12.60;99.90;;;;;;4130530;28;20479;-76
2021/11/01 15:41:21;;;;;;;13.27;3.13;;;11.60;99.90;;;;;;4129892;28;20032;-74
2021/11/01 16:20:01;;;;;;;8.77;4.35;;;10.30;99.90;;;;;;4127134;28;20034;-76
2021/11/01 16:22:02;;;;;;;13.00;3.85;;;10.10;99.90;;;;;;4119864;28;20065;-75
2021/11/01 16:24:03;;;;;;;6.10;3.33;;;10.10;99.90;;;;;;4124871;28;20058;-74
2021/11/01 16:26:32;;;;;;;6.40;3.65;;;10.00;99.90;;;;;;4117848;28;20030;-75
2021/11/01 16:28:33;;;;;;;3.97;2.78;;;9.90;99.90;;;;;;4123518;28;20035;-75
2021/11/01 16:30:35;;;;;;;5.55;2.50;;;9.80;99.90;;;;;;4120825;28;20479;-75
2021/11/01 16:32:41;;;;;;;5.32;2.38;;;9.60;99.90;;;;;;4123352;28;20037;-75
2021/11/01 16:34:46;;;;;;;4.25;2.80;;;9.40;99.90;;;;;;4121164;28;20670;-76
2021/11/01 16:38:51;;;;;;;5.10;2.55;;;9.50;99.90;;;;;;4130348;28;20041;-75
2021/11/01 16:40:54;;;;;;;3.88;2.10;;;9.60;99.90;;;;;;4130094;28;20112;-77
2021/11/01 16:42:55;;;;;;;3.10;2.10;;;9.50;99.90;;;;;;4129846;28;20058;-76
2021/11/01 16:45:04;;;;;;;4.47;2.35;;;9.40;99.90;;;;;;4130026;28;20396;-77
2021/11/01 16:47:04;;;;;;;3.33;2.70;;;9.30;99.90;;;;;;4127064;28;20054;-76
2021/11/01 16:49:05;;;;;;;3.20;2.70;;;9.30;99.90;;;;;;4128949;28;20054;-76
2021/11/01 16:51:06;;;;;;;2.80;2.60;;;9.40;99.90;;;;;;4129058;28;20035;-76
2021/11/01 16:53:07;;;;;;;4.25;3.30;;;9.30;99.90;;;;;;4131283;28;20385;-76
2021/11/01 16:55:20;;;;;;;6.57;3.67;;;9.20;99.90;;;;;;4129490;28;20053;-77
2021/11/01 16:57:30;;;;;;;3.50;3.10;;;9.10;99.90;;;;;;4118341;28;20063;-76
2021/11/01 16:59:47;;;;;;;5.22;3.10;;;9.10;99.90;;;;;;4130272;28;20041;-76
2021/11/01 17:01:51;;;;;;;5.95;3.03;;;9.00;99.90;;;;;;4132826;28;20038;-75
2021/11/01 17:04:01;;;;;;;3.97;3.00;;;9.00;99.90;;;;;;4139110;28;20027;-76
2021/11/01 17:22:16;;;;;;;8.82;4.28;;;8.90;99.90;;;;;;4129719;28;20057;-76
2021/11/01 17:24:23;;;;;;;6.40;4.57;;;8.80;99.90;;;;;;4113943;28;20042;-76
2021/11/01 18:37:21;;;;;;;10.52;5.90;;;7.80;99.90;;;;;;4120429;28;20448;-76
2021/11/01 18:52:42;;;;;;;8.02;6.35;;;7.50;99.90;;;;;;4127942;28;20121;-76
2021/11/01 18:54:49;;;;;;;12.38;7.05;;;7.50;99.90;;;;;;4128748;28;20445;-76
2021/11/01 18:56:55;;;;;;;10.20;6.57;;;7.50;99.90;;;;;;4119508;28;20038;-76
2021/11/01 18:58:59;;;;;;;12.32;7.10;;;7.40;99.90;;;;;;4120597;28;20038;-76
2021/11/01 19:01:01;;;;;;;10.38;5.45;;;7.50;99.90;;;;;;4120586;28;20031;-77
2021/11/01 19:03:04;;;;;;;10.02;6.03;;;7.40;99.90;;;;;;4122930;28;20113;-76
2021/11/01 19:05:31;;;;;;;7.17;5.47;;;7.50;99.90;;;;;;4118167;28;20019;-77
2021/11/01 19:10:09;;;;;;;7.38;5.72;;;7.50;99.90;;;;;;4127928;28;20136;-74
2021/11/01 19:13:19;;;;;;;9.95;7.03;;;7.40;99.90;;;;;;4123243;28;20694;-76
2021/11/01 20:04:11;;;;;;;15.02;8.98;;;7.10;99.90;;;;;;4129544;28;20068;-75
2021/11/01 20:06:29;;;;;;;14.73;9.70;;;7.10;99.90;;;;;;4128892;28;20458;-76
2021/11/01 20:13:05;;;;;;;13.30;7.90;;;7.20;99.90;;;;;;4118419;28;20419;-76